createdAt,value
2018-03-25T00:01:12.507Z,21.92
2018-03-25T00:03:40.150Z,26.00
2018-03-25T00:06:07.767Z,25.02
2018-03-25T00:08:35.488Z,26.70
2018-03-25T00:11:03.127Z,29.90
2018-03-25T00:13:30.722Z,27.62
2018-03-25T00:15:58.352Z,24.85
2018-03-25T00:18:25.950Z,27.17
2018-03-25T00:20:53.584Z,26.50
2018-03-25T00:23:21.228Z,26.25
2018-03-25T00:25:48.848Z,29.93
2018-03-25T00:28:16.449Z,24.25
2018-03-25T00:30:44.079Z,29.95
2018-03-25T00:33:11.704Z,31.12
2018-03-25T00:35:39.307Z,29.35
2018-03-25T00:38:06.943Z,27.42
2018-03-25T00:40:34.554Z,27.83
2018-03-25T00:43:02.168Z,29.25
2018-03-25T00:45:29.762Z,29.33
2018-03-25T00:47:57.395Z,31.02
2018-03-25T00:50:24.995Z,27.08
2018-03-25T00:52:52.614Z,29.90
2018-03-25T00:55:20.327Z,27.75
2018-03-25T00:57:47.943Z,30.67
2018-03-25T01:00:15.603Z,33.58
2018-03-25T01:02:43.224Z,27.58
2018-03-25T01:05:10.848Z,27.75
2018-03-25T01:07:38.521Z,29.10
2018-03-25T01:10:06.187Z,25.37
2018-03-25T01:12:33.853Z,31.33
2018-03-25T01:15:01.481Z,32.00
2018-03-25T01:17:29.107Z,32.30
2018-03-25T01:19:56.775Z,29.25
2018-03-25T01:22:24.396Z,28.30
2018-03-25T01:24:52.059Z,25.33
2018-03-25T01:27:19.751Z,28.62
2018-03-25T01:29:47.474Z,33.42
2018-03-25T01:32:15.143Z,29.85
2018-03-25T01:34:42.748Z,33.10
2018-03-25T01:37:10.359Z,30.88
2018-03-25T01:39:38.094Z,39.28
2018-03-25T01:42:05.743Z,24.90
2018-03-25T01:44:33.370Z,33.22
2018-03-25T01:47:00.967Z,34.60
2018-03-25T01:49:28.595Z,31.83
2018-03-25T01:51:56.191Z,36.38
2018-03-25T10:45:28.947Z,22.47
2018-03-25T10:47:56.631Z,22.33
2018-03-25T10:50:24.242Z,18.03
2018-03-25T10:52:51.904Z,21.90
2018-03-25T10:55:19.619Z,19.07
2018-03-25T10:57:47.327Z,16.93
2018-03-25T11:00:14.983Z,18.33
2018-03-25T11:02:42.644Z,16.70
2018-03-25T11:05:10.467Z,52.37
2018-03-25T11:07:38.179Z,26.43
2018-03-25T11:10:05.796Z,18.97
2018-03-25T11:12:33.447Z,19.60
2018-03-25T11:15:01.091Z,22.07
2018-03-25T11:17:28.694Z,22.83
2018-03-25T11:19:56.296Z,23.23
2018-03-25T11:22:23.947Z,21.80
2018-03-25T11:24:52.535Z,18.53
2018-03-25T11:27:20.170Z,18.33
2018-03-25T11:29:47.797Z,20.57
2018-03-25T11:32:15.823Z,21.97
2018-03-25T11:34:43.403Z,22.37
2018-03-25T11:37:11.087Z,20.27
2018-03-25T11:39:38.720Z,20.57
2018-03-25T11:42:06.367Z,24.10
2018-03-25T11:44:34.013Z,20.10
2018-03-25T11:47:01.618Z,18.47
2018-03-25T11:49:29.286Z,19.93
2018-03-25T11:51:56.943Z,25.27
2018-03-25T11:54:24.547Z,20.33
2018-03-25T11:56:52.162Z,22.17
2018-03-25T11:59:19.743Z,22.37
2018-03-25T12:01:47.374Z,20.33
2018-03-25T12:04:14.962Z,18.97
2018-03-25T12:06:42.633Z,19.33
2018-03-25T12:09:10.217Z,20.40
2018-03-25T12:11:37.906Z,21.20
2018-03-25T12:14:05.499Z,20.30
2018-03-25T12:16:33.103Z,23.23
2018-03-25T12:19:00.835Z,20.20
2018-03-25T12:21:28.657Z,17.43
2018-03-25T12:23:56.436Z,20.53
2018-03-25T12:26:24.035Z,21.43
2018-03-25T12:28:51.636Z,21.47
2018-03-25T12:31:19.238Z,19.93
2018-03-25T12:33:46.882Z,22.63
2018-03-25T12:36:17.522Z,21.00
2018-03-25T12:38:45.165Z,21.10
2018-03-25T12:41:12.823Z,22.13
2018-03-25T12:43:40.410Z,18.37
2018-03-25T12:46:07.995Z,20.60
2018-03-25T12:48:35.611Z,27.57
2018-03-25T12:51:03.254Z,24.13
2018-03-25T12:53:30.838Z,37.83
2018-03-25T12:55:58.427Z,30.97
2018-03-25T12:58:26.019Z,33.90
2018-03-25T13:00:53.680Z,17.23
2018-03-25T13:03:21.273Z,24.97
2018-03-25T13:05:48.891Z,20.37
2018-03-25T13:08:16.557Z,19.43
2018-03-25T13:10:44.201Z,21.27
2018-03-25T13:13:11.817Z,23.37
2018-03-25T13:15:39.412Z,20.77
2018-03-25T13:18:07.052Z,20.57
2018-03-25T13:20:34.663Z,51.13
2018-03-25T13:23:02.266Z,27.50
2018-03-25T13:25:29.879Z,19.50
2018-03-25T13:27:57.462Z,23.63
2018-03-25T13:30:25.128Z,22.53
2018-03-25T13:32:52.722Z,25.43
2018-03-25T13:35:20.348Z,22.33
2018-03-25T13:37:47.966Z,22.83
2018-03-25T13:40:15.595Z,25.40
2018-03-25T13:42:43.183Z,33.40
2018-03-25T13:45:10.860Z,40.67
2018-03-25T13:47:38.447Z,32.77
2018-03-25T13:50:06.051Z,35.23
2018-03-25T13:52:33.643Z,30.33
2018-03-25T13:55:01.251Z,30.93
2018-03-25T13:57:28.883Z,25.50
2018-03-25T13:59:56.527Z,36.27
2018-03-25T14:02:24.155Z,28.40
2018-03-25T14:04:51.743Z,30.03
2018-03-25T14:07:19.387Z,33.63
2018-03-25T14:09:46.988Z,36.80
2018-03-25T14:12:14.574Z,38.13
2018-03-25T14:14:42.215Z,33.37
2018-03-25T14:17:09.827Z,37.20
2018-03-25T14:19:37.416Z,36.97
2018-03-25T14:22:05.015Z,38.07
2018-03-25T14:24:32.623Z,30.17
2018-03-25T14:27:00.223Z,28.67
2018-03-25T14:29:27.807Z,34.13
2018-03-25T14:31:55.418Z,75.93
2018-03-25T14:34:23.051Z,71.10
2018-03-25T14:36:50.645Z,77.73
2018-03-25T14:39:18.259Z,50.60
2018-03-25T14:41:45.901Z,28.70
2018-03-25T14:44:13.521Z,27.33
2018-03-25T14:46:41.118Z,34.07
2018-03-25T14:49:08.758Z,36.90
2018-03-25T14:51:36.375Z,51.50
2018-03-25T14:54:03.999Z,33.13
2018-03-25T14:56:31.687Z,37.50
2018-03-25T14:58:59.247Z,35.60
2018-03-25T15:01:26.830Z,36.83
2018-03-25T15:03:54.470Z,38.47
2018-03-25T15:06:22.051Z,37.37
2018-03-25T15:08:49.639Z,33.43
2018-03-25T15:11:17.254Z,37.93
2018-03-25T15:13:45.014Z,38.43
2018-03-25T15:16:12.691Z,44.33
2018-03-25T15:18:40.280Z,40.10
2018-03-25T15:21:07.886Z,39.73
2018-03-25T15:23:35.507Z,42.23
2018-03-25T15:26:03.249Z,41.57
2018-03-25T15:28:30.964Z,38.33
2018-03-25T15:30:58.580Z,36.87
2018-03-25T15:33:26.415Z,35.60
2018-03-25T15:35:54.040Z,37.33
2018-03-25T15:38:21.698Z,41.20
2018-03-25T15:40:49.277Z,43.40
2018-03-25T15:43:16.899Z,37.57
2018-03-25T15:45:44.483Z,42.17
2018-03-25T15:48:12.071Z,40.70
2018-03-25T15:50:39.675Z,40.43
2018-03-25T15:53:07.370Z,41.20
2018-03-25T15:55:35.043Z,40.83
2018-03-25T15:58:02.659Z,44.00
2018-03-25T16:00:30.252Z,42.83
2018-03-25T16:02:57.882Z,50.87
2018-03-25T16:05:25.484Z,54.27
2018-03-25T16:07:53.158Z,59.63
2018-03-25T16:10:21.061Z,66.73
2018-03-25T16:12:48.667Z,71.43
2018-03-25T16:15:16.260Z,98.30
2018-03-25T16:17:43.939Z,66.80
2018-03-25T16:20:11.526Z,56.67
2018-03-25T16:22:39.196Z,47.43
2018-03-25T16:25:06.828Z,49.50
2018-03-25T16:27:34.419Z,46.97
2018-03-25T16:30:02.040Z,50.97
2018-03-25T16:32:29.655Z,54.10
2018-03-25T16:34:57.275Z,55.93
2018-03-25T16:37:24.899Z,52.00
2018-03-25T16:39:52.490Z,55.27
2018-03-25T16:42:20.208Z,57.07
2018-03-25T16:44:47.806Z,54.53
2018-03-25T16:47:15.395Z,55.93
2018-03-25T16:49:42.987Z,59.33
2018-03-25T16:52:10.584Z,61.20
2018-03-25T16:54:38.178Z,37.47
2018-03-25T16:57:05.779Z,44.87
2018-03-25T16:59:33.415Z,39.37
2018-03-25T17:02:00.998Z,34.63
2018-03-25T17:04:28.603Z,35.93
2018-03-25T17:06:56.231Z,28.37
2018-03-25T17:09:23.831Z,27.27
2018-03-25T17:11:51.723Z,32.27
2018-03-25T17:14:19.310Z,27.23
2018-03-25T17:16:46.982Z,29.93
2018-03-25T17:19:14.577Z,32.67
2018-03-25T17:21:42.179Z,33.43
2018-03-25T17:24:09.779Z,27.23
2018-03-25T17:26:37.384Z,32.63
2018-03-25T17:29:05.015Z,43.00
2018-03-25T17:31:32.634Z,50.33
2018-03-25T17:34:00.222Z,41.27
2018-03-25T17:36:27.851Z,42.60
2018-03-25T17:38:55.435Z,38.97
2018-03-25T17:41:23.071Z,54.37
2018-03-25T17:43:50.700Z,45.90
2018-03-25T17:46:18.331Z,39.13
2018-03-25T17:48:45.942Z,36.60
2018-03-25T17:51:13.598Z,39.50
2018-03-25T17:53:41.232Z,23.53
2018-03-25T17:56:08.851Z,28.13
2018-03-25T17:58:36.450Z,34.10
2018-03-25T18:01:04.071Z,26.20
2018-03-25T18:03:31.648Z,28.27
2018-03-25T18:05:59.251Z,42.83
2018-03-25T18:08:26.856Z,39.00
2018-03-25T18:10:54.463Z,42.03
2018-03-25T18:13:22.153Z,50.20
2018-03-25T18:15:49.767Z,42.43
2018-03-25T18:18:17.383Z,39.07
2018-03-25T18:20:56.291Z,36.63
2018-03-25T18:23:12.723Z,37.40
2018-03-25T18:25:40.351Z,35.70
2018-03-25T18:28:08.673Z,40.47
2018-03-25T18:30:36.293Z,30.57
2018-03-25T18:33:03.882Z,30.63
2018-03-25T18:35:31.476Z,32.00
2018-03-25T18:37:59.160Z,38.53
2018-03-25T18:40:26.768Z,31.13
2018-03-25T18:42:54.365Z,29.17
2018-03-25T18:45:22.002Z,30.50
2018-03-25T18:47:49.599Z,27.30
2018-03-25T18:50:17.183Z,31.67
2018-03-25T18:52:44.834Z,30.23
2018-03-25T18:55:12.419Z,48.13
2018-03-25T18:57:40.024Z,33.33
2018-03-25T19:00:07.851Z,32.83
2018-03-25T19:02:35.469Z,35.47
2018-03-25T19:05:03.095Z,34.63
2018-03-25T19:07:30.779Z,38.07
2018-03-25T19:09:58.497Z,41.97
2018-03-25T19:12:26.084Z,43.43
2018-03-25T19:14:53.667Z,48.20
2018-03-25T19:17:21.304Z,39.50
2018-03-25T19:19:48.944Z,35.60
2018-03-25T19:22:16.583Z,35.83
2018-03-25T19:24:44.219Z,32.67
2018-03-25T19:27:11.846Z,35.47
2018-03-25T19:29:39.495Z,31.83
2018-03-25T19:32:08.077Z,34.27
2018-03-25T19:34:36.419Z,40.00
2018-03-25T19:37:04.044Z,38.27
2018-03-25T19:39:31.669Z,36.47
2018-03-25T19:41:59.299Z,38.43
2018-03-25T19:44:27.909Z,34.27
2018-03-25T19:46:55.563Z,36.37
2018-03-25T19:49:23.189Z,35.77
2018-03-25T19:51:50.825Z,36.67
2018-03-25T19:54:18.423Z,37.33
2018-03-25T19:56:46.028Z,33.37
2018-03-25T19:59:13.624Z,33.50
2018-03-25T20:01:41.767Z,35.10
2018-03-25T20:04:09.531Z,34.10
2018-03-25T20:06:37.263Z,34.93
2018-03-25T20:09:05.794Z,33.17
2018-03-25T20:11:33.443Z,34.77
2018-03-25T20:14:01.035Z,34.73
2018-03-25T20:16:28.671Z,32.33
2018-03-25T20:18:56.273Z,32.50
2018-03-25T20:24:16.801Z,36.87
2018-03-25T20:26:44.531Z,38.23
2018-03-25T20:29:12.147Z,32.53
2018-03-25T20:31:39.775Z,36.43
2018-03-25T20:34:07.392Z,42.07
2018-03-25T20:36:34.999Z,38.87
2018-03-25T20:39:02.697Z,41.93
2018-03-25T20:41:30.429Z,36.47
2018-03-25T20:43:58.044Z,32.10
2018-03-25T20:46:25.667Z,33.97
2018-03-25T20:48:53.288Z,35.37
2018-03-25T20:51:20.939Z,35.33
2018-03-25T20:53:48.568Z,33.10
2018-03-25T20:56:16.258Z,39.17
2018-03-25T20:58:43.827Z,38.07
2018-03-25T21:01:11.505Z,36.40
2018-03-25T21:03:39.133Z,42.57
2018-03-25T21:06:06.767Z,42.17
2018-03-25T21:08:34.367Z,34.90
2018-03-25T21:11:01.994Z,37.37
2018-03-25T21:13:29.630Z,35.07
2018-03-25T21:15:57.222Z,30.60
2018-03-25T21:18:24.871Z,33.33
2018-03-25T21:20:52.563Z,38.63
2018-03-25T21:23:20.247Z,39.43
2018-03-25T21:25:47.860Z,38.67
2018-03-25T21:28:15.475Z,50.23
2018-03-25T21:30:43.078Z,53.00
2018-03-25T21:33:10.694Z,45.20
2018-03-25T21:35:38.300Z,38.53
2018-03-25T21:38:05.895Z,37.97
2018-03-25T21:40:33.531Z,36.87
2018-03-25T21:43:01.127Z,38.53
2018-03-25T21:45:29.328Z,34.40
2018-03-25T21:47:56.935Z,32.17
2018-03-25T21:50:24.714Z,35.83
2018-03-25T21:52:52.339Z,37.77
2018-03-25T21:55:19.966Z,38.20
2018-03-25T21:57:47.603Z,35.67
2018-03-25T22:00:15.224Z,39.20
2018-03-25T22:02:42.872Z,38.17
2018-03-25T22:05:10.477Z,39.77
2018-03-25T22:07:38.075Z,39.67
2018-03-25T22:10:05.702Z,40.00
2018-03-25T22:12:33.287Z,36.33
2018-03-25T22:15:00.911Z,59.73
2018-03-25T22:17:28.559Z,38.13
2018-03-25T22:19:56.148Z,41.23
2018-03-25T22:22:23.731Z,40.93
2018-03-25T22:24:51.325Z,46.03
2018-03-25T22:27:18.970Z,41.30
2018-03-25T22:29:46.567Z,44.73
2018-03-25T22:32:14.244Z,35.50
2018-03-25T22:34:41.815Z,46.93
2018-03-25T22:37:09.431Z,45.17
2018-03-25T22:39:37.019Z,38.53
2018-03-25T22:42:04.619Z,46.10
2018-03-25T22:44:32.321Z,42.43
2018-03-25T22:46:59.902Z,42.90
2018-03-25T22:49:27.484Z,41.87
2018-03-25T22:51:55.127Z,40.83
2018-03-25T22:54:22.683Z,47.37
2018-03-25T22:56:50.299Z,45.03
2018-03-25T22:59:17.887Z,48.27
2018-03-25T23:01:45.525Z,45.23
2018-03-25T23:04:13.151Z,44.43
2018-03-25T23:06:40.742Z,49.23
2018-03-25T23:09:08.359Z,54.47
2018-03-25T23:11:35.973Z,54.50
2018-03-25T23:14:03.582Z,53.00
2018-03-25T23:16:32.740Z,61.67
2018-03-25T23:19:00.362Z,53.90
2018-03-25T23:21:27.939Z,61.77
2018-03-25T23:23:55.566Z,70.47
2018-03-25T23:26:23.167Z,68.90
2018-03-25T23:28:50.754Z,63.80
2018-03-25T23:31:18.415Z,62.00
2018-03-25T23:33:46.023Z,70.30
